Terminal Aerodrome Forecast
Issued by NWS

Home | Current Version | Previous Version | Text Only | Print | Product List | Glossary On
Versions: 1 2 3 4 5 6 7 8 9 10 11 12 13
000
FTUS44 KBMX 190500
TAFTCL
TAF
KTCL 190520Z 1906/2006 00000KT P6SM SCT025 OVC050
      TEMPO 1909/1913 4SM BR
     FM191400 01008G16KT P6SM SCT060
     FM200000 02003KT P6SM SCT050=

USA.gov is the U.S. government's official web portal to all federal, state and local government web resources and services.